Time,TemperatureF,DewpointF,PressureIn,WindDirection,WindDirectionDegrees,WindSpeedMPH,WindSpeedGustMPH,Humidity,HourlyPrecipIn,Conditions,Clouds,dailyrainin,SolarRadiationWatts/m^2,SoftwareType,DateUTC
2013-12-10 00:02:00,29.0,29.0,-100.00,NNW,334,1.0,4.0,100,0.00,,,0.44,0.000000,,2013-12-10 05:02:00,
2013-12-10 00:12:00,29.0,29.0,-100.00,NNW,334,1.0,4.0,100,0.00,,,0.44,0.000000,,2013-12-10 05:12:00,
2013-12-10 00:43:00,30.0,30.0,-100.00,WSW,258,2.0,7.0,100,0.00,,,0.44,0.000000,,2013-12-10 05:43:00,
2013-12-10 00:53:00,30.0,30.0,-100.00,WSW,258,2.0,7.0,100,0.00,,,0.44,0.000000,,2013-12-10 05:53:00,
2013-12-10 01:02:00,30.0,30.0,-100.00,WSW,258,2.0,7.0,100,0.00,,,0.44,0.000000,,2013-12-10 06:02:00,
2013-12-10 01:12:00,30.0,30.0,-100.00,WSW,258,2.0,7.0,100,0.00,,,0.44,0.000000,,2013-12-10 06:12:00,
2013-12-10 01:42:00,32.0,32.0,-100.00,West,260,1.0,5.0,100,0.00,,,0.44,0.000000,,2013-12-10 06:42:00,
2013-12-10 01:53:00,32.0,32.0,-100.00,West,260,1.0,5.0,100,0.00,,,0.44,0.000000,,2013-12-10 06:53:00,
2013-12-10 02:02:00,32.0,32.0,-100.00,West,260,1.0,5.0,100,0.00,,,0.44,0.000000,,2013-12-10 07:02:00,
2013-12-10 02:11:00,32.0,32.0,-100.00,West,260,1.0,5.0,100,0.00,,,0.44,0.000000,,2013-12-10 07:11:00,
2013-12-10 02:42:00,32.0,32.0,-100.00,NNE,12,2.0,6.0,100,0.00,,,0.44,0.000000,,2013-12-10 07:42:00,
2013-12-10 02:52:00,32.0,32.0,-100.00,NNE,12,2.0,6.0,100,0.00,,,0.44,0.000000,,2013-12-10 07:52:00,
2013-12-10 03:02:00,32.0,32.0,-100.00,NNE,12,2.0,6.0,100,0.00,,,0.44,0.000000,,2013-12-10 08:02:00,
2013-12-10 03:12:00,32.0,32.0,-100.00,NNE,12,2.0,6.0,100,0.00,,,0.44,0.000000,,2013-12-10 08:12:00,
2013-12-10 03:42:00,33.0,33.0,-100.00,NNW,329,2.0,5.0,100,0.00,,,0.44,0.000000,,2013-12-10 08:42:00,
2013-12-10 03:52:00,33.0,33.0,-100.00,NNW,329,2.0,5.0,100,0.00,,,0.44,0.000000,,2013-12-10 08:52:00,
2013-12-10 04:02:00,33.0,33.0,-100.00,NNW,329,2.0,5.0,100,0.00,,,0.44,0.000000,,2013-12-10 09:02:00,
2013-12-10 04:11:00,33.0,33.0,-100.00,NNW,329,2.0,5.0,100,0.00,,,0.44,0.000000,,2013-12-10 09:11:00,
2013-12-10 04:44:00,33.0,32.0,-100.00,WNW,284,2.0,6.0,97,0.00,,,0.44,0.000000,,2013-12-10 09:44:00,
2013-12-10 04:54:00,33.0,32.0,-100.00,WNW,284,2.0,6.0,97,0.00,,,0.44,0.000000,,2013-12-10 09:54:00,
2013-12-10 05:03:00,33.0,32.0,-100.00,WNW,284,2.0,6.0,97,0.00,,,0.44,0.000000,,2013-12-10 10:03:00,
2013-12-10 05:12:00,33.0,32.0,-100.00,WNW,284,2.0,6.0,97,0.00,,,0.44,0.000000,,2013-12-10 10:12:00,
2013-12-10 05:43:00,33.0,31.0,-100.00,West,281,2.0,5.0,91,0.00,,,0.44,0.000000,,2013-12-10 10:43:00,
2013-12-10 05:53:00,33.0,31.0,-100.00,West,281,2.0,5.0,91,0.00,,,0.44,0.000000,,2013-12-10 10:53:00,
2013-12-10 06:02:00,33.0,31.0,-100.00,West,281,2.0,5.0,91,0.00,,,0.44,0.000000,,2013-12-10 11:02:00,
2013-12-10 06:12:00,33.0,31.0,-100.00,West,281,2.0,5.0,91,0.00,,,0.44,0.000000,,2013-12-10 11:12:00,
2013-12-10 06:43:00,32.0,32.0,-100.00,WNW,297,2.0,7.0,98,0.00,,,0.44,0.000000,,2013-12-10 11:43:00,
2013-12-10 06:53:00,32.0,32.0,-100.00,WNW,297,2.0,7.0,98,0.00,,,0.44,0.000000,,2013-12-10 11:53:00,
2013-12-10 07:02:00,32.0,32.0,-100.00,WNW,297,2.0,7.0,98,0.00,,,0.44,0.000000,,2013-12-10 12:02:00,
2013-12-10 07:12:00,32.0,32.0,-100.00,WNW,297,2.0,7.0,98,0.00,,,0.44,0.000000,,2013-12-10 12:12:00,
2013-12-10 10:44:00,35.0,34.0,-100.00,WNW,300,1.0,2.0,97,-99.99,,,-99.99,8.000000,,2013-12-10 15:44:00,
2013-12-10 10:53:00,35.0,34.0,-100.00,WNW,300,1.0,2.0,97,-99.99,,,-99.99,8.000000,,2013-12-10 15:53:00,
2013-12-10 11:04:00,35.0,34.0,-100.00,WNW,300,1.0,2.0,97,-99.99,,,-99.99,8.000000,,2013-12-10 16:04:00,
2013-12-10 11:12:00,35.0,34.0,-100.00,WNW,300,1.0,2.0,97,-99.99,,,-99.99,8.000000,,2013-12-10 16:12:00,
2013-12-10 11:13:00,36.0,33.0,-100.00,NW,308,1.0,5.0,90,0.00,,,0.43,10.000000,,2013-12-10 16:13:00,
2013-12-10 11:43:00,36.0,33.0,-100.00,NW,308,1.0,5.0,90,0.00,,,0.43,10.000000,,2013-12-10 16:43:00,
2013-12-10 11:53:00,36.0,33.0,-100.00,NW,308,1.0,5.0,90,0.00,,,0.43,10.000000,,2013-12-10 16:53:00,
2013-12-10 12:03:00,36.0,33.0,-100.00,NW,308,1.0,5.0,90,0.00,,,0.43,10.000000,,2013-12-10 17:03:00,
2013-12-10 12:43:00,38.0,34.0,-100.00,WNW,285,2.0,5.0,85,0.00,,,0.37,14.000000,,2013-12-10 17:43:00,
2013-12-10 12:52:00,38.0,34.0,-100.00,WNW,285,2.0,5.0,85,0.00,,,0.37,14.000000,,2013-12-10 17:52:00,
2013-12-10 13:02:00,38.0,34.0,-100.00,WNW,285,2.0,5.0,85,0.00,,,0.37,14.000000,,2013-12-10 18:02:00,
2013-12-10 13:11:00,38.0,34.0,-100.00,WNW,285,2.0,5.0,85,0.00,,,0.37,14.000000,,2013-12-10 18:11:00,
2013-12-10 13:42:00,38.0,33.0,-100.00,WSW,246,1.0,5.0,81,0.02,,,0.30,21.000000,,2013-12-10 18:42:00,
2013-12-10 13:53:00,38.0,33.0,-100.00,WSW,246,1.0,5.0,81,0.02,,,0.30,21.000000,,2013-12-10 18:53:00,
2013-12-10 14:02:00,38.0,33.0,-100.00,WSW,246,1.0,5.0,81,0.02,,,0.30,21.000000,,2013-12-10 19:02:00,
2013-12-10 14:11:00,38.0,33.0,-100.00,WSW,246,1.0,5.0,81,0.02,,,0.30,21.000000,,2013-12-10 19:11:00,
2013-12-10 14:42:00,38.0,31.0,-100.00,West,281,3.0,11.0,77,0.06,,,0.25,20.000000,,2013-12-10 19:42:00,
2013-12-10 14:52:00,38.0,31.0,-100.00,West,281,3.0,11.0,77,0.06,,,0.25,20.000000,,2013-12-10 19:52:00,
2013-12-10 15:02:00,38.0,31.0,-100.00,West,281,3.0,11.0,77,0.06,,,0.25,20.000000,,2013-12-10 20:02:00,
2013-12-10 15:11:00,38.0,31.0,-100.00,West,281,3.0,11.0,77,0.06,,,0.25,20.000000,,2013-12-10 20:11:00,
2013-12-10 15:42:00,34.0,27.0,-100.00,WNW,286,5.0,11.0,75,0.05,,,0.22,9.000000,,2013-12-10 20:42:00,
2013-12-10 15:53:00,34.0,27.0,-100.00,WNW,286,5.0,11.0,75,0.05,,,0.22,9.000000,,2013-12-10 20:53:00,
2013-12-10 16:02:00,34.0,27.0,-100.00,WNW,286,5.0,11.0,75,0.05,,,0.22,9.000000,,2013-12-10 21:02:00,
2013-12-10 16:12:00,34.0,27.0,-100.00,WNW,286,5.0,11.0,75,0.05,,,0.22,9.000000,,2013-12-10 21:12:00,
2013-12-10 16:13:00,33.0,24.0,-100.00,WNW,282,4.0,10.0,70,0.02,,,0.19,8.000000,,2013-12-10 21:13:00,
2013-12-10 16:43:00,33.0,24.0,-100.00,WNW,282,4.0,10.0,70,0.02,,,0.19,8.000000,,2013-12-10 21:43:00,
2013-12-10 16:54:00,33.0,24.0,-100.00,WNW,282,4.0,10.0,70,0.02,,,0.19,8.000000,,2013-12-10 21:54:00,
2013-12-10 17:04:00,33.0,24.0,-100.00,WNW,282,4.0,10.0,70,0.02,,,0.19,8.000000,,2013-12-10 22:04:00,
2013-12-10 17:43:00,30.0,21.0,-100.00,West,268,4.0,9.0,69,0.00,,,0.17,1.000000,,2013-12-10 22:43:00,
2013-12-10 17:53:00,30.0,21.0,-100.00,West,268,4.0,9.0,69,0.00,,,0.17,1.000000,,2013-12-10 22:53:00,
2013-12-10 18:02:00,30.0,21.0,-100.00,West,268,4.0,9.0,69,0.00,,,0.17,1.000000,,2013-12-10 23:02:00,
2013-12-10 18:12:00,30.0,21.0,-100.00,West,268,4.0,9.0,69,0.00,,,0.17,1.000000,,2013-12-10 23:12:00,
2013-12-10 18:43:00,27.0,20.0,-100.00,NNE,30,1.0,9.0,73,0.00,,,0.16,0.000000,,2013-12-10 23:43:00,
2013-12-10 18:53:00,27.0,20.0,-100.00,NNE,30,1.0,9.0,73,0.00,,,0.16,0.000000,,2013-12-10 23:53:00,
2013-12-10 19:02:00,27.0,20.0,-100.00,NNE,30,1.0,9.0,73,0.00,,,0.16,0.000000,,2013-12-11 00:02:00,
2013-12-10 19:12:00,27.0,20.0,-100.00,NNE,30,1.0,9.0,73,0.00,,,0.16,0.000000,,2013-12-11 00:12:00,
2013-12-10 19:42:00,24.0,19.0,-100.00,SW,221,1.0,5.0,80,0.00,,,0.16,0.000000,,2013-12-11 00:42:00,
2013-12-10 19:52:00,24.0,19.0,-100.00,SW,221,1.0,5.0,80,0.00,,,0.16,0.000000,,2013-12-11 00:52:00,
2013-12-10 20:01:00,24.0,19.0,-100.00,SW,221,1.0,5.0,80,0.00,,,0.16,0.000000,,2013-12-11 01:01:00,
2013-12-10 20:11:00,24.0,19.0,-100.00,SW,221,1.0,5.0,80,0.00,,,0.16,0.000000,,2013-12-11 01:11:00,
2013-12-10 20:42:00,22.0,17.0,-100.00,ENE,71,1.0,4.0,81,0.00,,,0.15,0.000000,,2013-12-11 01:42:00,
2013-12-10 20:52:00,22.0,17.0,-100.00,ENE,71,1.0,4.0,81,0.00,,,0.15,0.000000,,2013-12-11 01:52:00,
2013-12-10 21:02:00,22.0,17.0,-100.00,ENE,71,1.0,4.0,81,0.00,,,0.15,0.000000,,2013-12-11 02:02:00,
2013-12-10 21:12:00,22.0,17.0,-100.00,ENE,71,1.0,4.0,81,0.00,,,0.15,0.000000,,2013-12-11 02:12:00,
2013-12-10 21:42:00,22.0,16.0,-100.00,SW,233,1.0,4.0,78,0.00,,,0.15,0.000000,,2013-12-11 02:42:00,
2013-12-10 21:52:00,22.0,16.0,-100.00,SW,233,1.0,4.0,78,0.00,,,0.15,0.000000,,2013-12-11 02:52:00,
2013-12-10 22:03:00,22.0,16.0,-100.00,SW,233,1.0,4.0,78,0.00,,,0.15,0.000000,,2013-12-11 03:03:00,
2013-12-10 22:11:00,22.0,16.0,-100.00,SW,233,1.0,4.0,78,0.00,,,0.15,0.000000,,2013-12-11 03:11:00,
2013-12-10 22:13:00,22.0,16.0,-100.00,ESE,119,1.0,8.0,77,0.00,,,0.15,0.000000,,2013-12-11 03:13:00,
2013-12-10 22:44:00,22.0,16.0,-100.00,ESE,119,1.0,8.0,77,0.00,,,0.15,0.000000,,2013-12-11 03:44:00,
2013-12-10 23:43:00,22.0,16.0,-100.00,West,278,3.0,9.0,77,0.00,,,0.15,0.000000,,2013-12-11 04:43:00,
2013-12-10 23:53:00,22.0,16.0,-100.00,West,278,3.0,9.0,77,0.00,,,0.15,0.000000,,2013-12-11 04:53:00,